createdAt,value
2022-09-12T00:01:41.129Z,3.10
2022-09-12T00:04:14.072Z,3.60
2022-09-12T00:06:45.972Z,3.50
2022-09-12T00:09:18.238Z,3.30
2022-09-12T00:11:50.146Z,3.20
2022-09-12T00:14:22.345Z,3.30
2022-09-12T00:16:54.562Z,3.30
2022-09-12T00:19:26.840Z,3.50
2022-09-12T00:21:59.008Z,3.80
2022-09-12T00:24:30.948Z,3.10
2022-09-12T00:27:02.776Z,3.40
2022-09-12T00:29:34.721Z,3.40
2022-09-12T00:32:07.068Z,3.20
2022-09-12T00:34:39.297Z,3.40
2022-09-12T00:37:11.325Z,3.50
2022-09-12T00:39:43.250Z,2.90
2022-09-12T00:42:15.849Z,3.00
2022-09-12T00:44:51.216Z,3.10
2022-09-12T00:47:28.498Z,2.90
2022-09-12T00:52:43.098Z,3.00
2022-09-12T00:55:18.584Z,3.30
2022-09-12T00:57:55.469Z,3.00
2022-09-12T01:03:02.094Z,3.10
2022-09-12T01:05:36.214Z,3.30
2022-09-12T01:08:09.124Z,3.10
2022-09-12T01:10:42.516Z,3.00
2022-09-12T01:13:14.451Z,3.30
2022-09-12T01:15:46.687Z,3.50
2022-09-12T01:18:27.339Z,3.30
2022-09-12T01:21:12.326Z,3.60
2022-09-12T01:24:27.451Z,3.30
2022-09-12T01:27:20.413Z,3.50
2022-09-12T01:30:05.927Z,3.40
2022-09-12T01:32:56.270Z,3.60
2022-09-12T01:35:33.779Z,3.40
2022-09-12T01:38:16.492Z,3.50
2022-09-12T01:41:00.570Z,3.30
2022-09-12T01:43:38.768Z,3.20
2022-09-12T01:46:17.449Z,3.60
2022-09-12T01:48:57.460Z,3.50
2022-09-12T01:51:34.336Z,3.60
2022-09-12T01:54:11.903Z,3.50
2022-09-12T01:56:45.927Z,3.50
2022-09-12T01:59:25.172Z,3.50
2022-09-12T02:02:03.723Z,3.40
2022-09-12T02:04:41.354Z,3.70
2022-09-12T02:07:18.222Z,3.70
2022-09-12T02:09:55.692Z,3.20
2022-09-12T02:12:32.851Z,3.10
2022-09-12T02:15:08.996Z,3.60
2022-09-12T02:17:43.799Z,3.40
2022-09-12T02:20:44.432Z,3.50
2022-09-12T02:23:17.829Z,3.40
2022-09-12T02:25:53.615Z,3.60
2022-09-12T02:28:29.989Z,3.20
2022-09-12T02:31:10.780Z,3.70
2022-09-12T02:33:50.097Z,3.40
2022-09-12T02:36:34.558Z,3.30
2022-09-12T02:39:07.402Z,3.60
2022-09-12T02:41:39.385Z,3.40
2022-09-12T02:44:11.330Z,3.20
2022-09-12T02:46:48.335Z,3.70
2022-09-12T02:51:51.344Z,3.80
2022-09-12T02:54:25.122Z,4.20
2022-09-12T02:56:57.046Z,3.80
2022-09-12T02:59:29.244Z,3.60
2022-09-12T03:02:16.835Z,4.40
2022-09-12T03:05:09.660Z,4.00
2022-09-12T03:08:02.281Z,4.00
2022-09-12T03:10:43.058Z,3.60
2022-09-12T03:13:24.676Z,4.10
2022-09-12T03:16:11.492Z,4.50
2022-09-12T03:18:56.720Z,4.40
2022-09-12T03:21:33.538Z,4.40
2022-09-12T03:24:19.202Z,3.90
2022-09-12T03:26:56.672Z,3.60
2022-09-12T03:29:31.038Z,4.30
2022-09-12T03:32:03.055Z,4.50
2022-09-12T03:34:35.121Z,4.30
2022-09-12T03:37:07.187Z,4.10
2022-09-12T03:39:39.090Z,4.40
2022-09-12T03:42:11.159Z,4.20
2022-09-12T03:44:42.923Z,4.80
2022-09-12T03:47:14.683Z,4.70
2022-09-12T03:49:46.756Z,4.60
2022-09-12T03:52:18.634Z,4.50
2022-09-12T03:54:50.602Z,4.40
2022-09-12T03:57:22.480Z,4.30
2022-09-12T03:59:54.331Z,4.50
2022-09-12T04:02:26.276Z,4.80
2022-09-12T04:04:58.098Z,4.60
2022-09-12T04:07:30.347Z,4.30
2022-09-12T04:10:02.196Z,4.20
2022-09-12T04:12:35.602Z,4.80
2022-09-12T04:15:09.100Z,4.30
2022-09-12T04:17:40.947Z,4.50
2022-09-12T04:20:13.304Z,5.10
2022-09-12T04:22:45.107Z,5.00
2022-09-12T04:25:17.380Z,5.00
2022-09-12T04:27:49.250Z,5.70
2022-09-12T04:30:21.565Z,4.80
2022-09-12T04:32:53.492Z,4.80
2022-09-12T04:35:25.304Z,5.20
2022-09-12T04:37:57.166Z,4.70
2022-09-12T04:40:30.153Z,4.70
2022-09-12T04:43:02.158Z,5.00
2022-09-12T04:45:34.397Z,4.90
2022-09-12T04:48:06.504Z,5.10
2022-09-12T04:50:38.804Z,4.80
2022-09-12T04:53:11.210Z,5.00
2022-09-12T04:55:45.347Z,5.70
2022-09-12T04:58:17.410Z,5.00
2022-09-12T05:00:49.222Z,4.40
2022-09-12T05:03:21.146Z,4.70
2022-09-12T05:05:56.350Z,5.00
2022-09-12T05:08:29.384Z,5.30
2022-09-12T05:11:06.023Z,4.60
2022-09-12T05:13:37.994Z,5.30
2022-09-12T05:16:12.808Z,5.00
2022-09-12T05:18:45.610Z,4.90
2022-09-12T05:21:20.843Z,4.30
2022-09-12T05:23:55.444Z,4.50
2022-09-12T05:26:27.520Z,5.00
2022-09-12T05:28:59.363Z,4.80
2022-09-12T05:31:31.297Z,4.80
2022-09-12T05:34:04.700Z,5.20
2022-09-12T05:36:38.478Z,5.20
2022-09-12T05:39:10.480Z,4.60
2022-09-12T05:41:42.482Z,4.80
2022-09-12T05:44:15.753Z,5.10
2022-09-12T05:46:51.298Z,4.80
2022-09-12T05:49:23.258Z,4.90
2022-09-12T05:51:55.208Z,5.10
2022-09-12T05:54:31.397Z,4.80
2022-09-12T05:57:04.001Z,4.70
2022-09-12T05:59:36.136Z,5.10
2022-09-12T06:02:08.257Z,4.80
2022-09-12T06:04:41.036Z,5.10
2022-09-12T06:07:13.446Z,4.50
2022-09-12T06:09:45.753Z,4.00
2022-09-12T06:12:17.652Z,4.60
2022-09-12T06:14:49.662Z,4.20
2022-09-12T06:17:22.337Z,5.00
2022-09-12T06:19:54.191Z,5.00
2022-09-12T06:22:26.234Z,4.20
2022-09-12T06:24:58.310Z,4.70
2022-09-12T06:27:31.842Z,5.00
2022-09-12T06:30:03.962Z,4.80
2022-09-12T06:32:38.881Z,4.80
2022-09-12T06:35:12.245Z,4.80
2022-09-12T06:37:46.836Z,4.90
2022-09-12T06:40:18.737Z,5.60
2022-09-12T06:42:51.014Z,5.10
2022-09-12T06:45:36.972Z,5.00
2022-09-12T06:48:08.750Z,4.70
2022-09-12T06:50:40.853Z,4.80
2022-09-12T06:53:12.714Z,5.00
2022-09-12T06:55:44.696Z,4.70
2022-09-12T06:58:16.577Z,7.00
2022-09-12T07:00:48.473Z,5.10
2022-09-12T07:03:20.616Z,5.00
2022-09-12T07:05:52.755Z,5.20
2022-09-12T07:08:24.828Z,5.30
2022-09-12T07:10:56.651Z,4.60
2022-09-12T07:13:28.578Z,6.00
2022-09-12T07:16:04.672Z,5.60
2022-09-12T07:18:38.107Z,4.70
2022-09-12T07:21:14.787Z,4.40
2022-09-12T07:23:47.771Z,4.30
2022-09-12T07:26:20.409Z,5.10
2022-09-12T07:29:07.941Z,4.70
2022-09-12T07:31:48.369Z,5.00
2022-09-12T07:34:20.253Z,4.80
2022-09-12T07:36:52.319Z,5.00
2022-09-12T07:39:24.145Z,4.90
2022-09-12T07:41:56.114Z,5.30
2022-09-12T07:44:28.272Z,4.40
2022-09-12T07:47:00.205Z,5.30
2022-09-12T07:49:32.106Z,4.80
2022-09-12T07:52:04.621Z,4.00
2022-09-12T07:54:36.724Z,4.40
2022-09-12T07:57:08.748Z,4.50
2022-09-12T07:59:52.395Z,4.90
2022-09-12T08:02:25.710Z,5.50
2022-09-12T08:04:57.720Z,4.90
2022-09-12T08:07:29.561Z,4.40
2022-09-12T08:10:01.670Z,5.30
2022-09-12T08:12:34.759Z,4.90
2022-09-12T08:15:07.488Z,5.20
2022-09-12T08:17:39.675Z,5.70
2022-09-12T08:20:12.243Z,4.90
2022-09-12T08:22:44.328Z,5.90
2022-09-12T08:25:16.450Z,5.80
2022-09-12T08:27:48.411Z,4.90
2022-09-12T08:30:20.599Z,5.30
2022-09-12T08:32:52.724Z,5.10
2022-09-12T08:35:24.550Z,5.40
2022-09-12T08:37:56.578Z,4.70
2022-09-12T08:40:28.601Z,5.30
2022-09-12T08:43:11.373Z,5.30
2022-09-12T08:45:49.956Z,4.60
2022-09-12T08:48:22.401Z,5.80
2022-09-12T08:50:55.045Z,6.20
2022-09-12T08:53:30.238Z,5.30
2022-09-12T08:56:03.875Z,4.50
2022-09-12T08:58:40.791Z,4.70
2022-09-12T09:04:05.988Z,4.10
2022-09-12T09:06:54.181Z,4.10
2022-09-12T09:09:36.703Z,4.80
2022-09-12T09:12:20.015Z,3.80
2022-09-12T09:15:09.378Z,3.50
2022-09-12T09:17:44.503Z,4.00
2022-09-12T09:20:25.110Z,4.20
2022-09-12T09:23:01.882Z,3.80
2022-09-12T09:25:43.750Z,4.20
2022-09-12T09:28:22.726Z,3.90
2022-09-12T09:30:55.672Z,3.90
2022-09-12T09:33:32.439Z,3.90
2022-09-12T09:36:14.880Z,4.00
2022-09-12T09:38:51.620Z,4.20
2022-09-12T09:41:51.540Z,4.50
2022-09-12T09:44:23.765Z,4.80
2022-09-12T09:46:59.252Z,3.80
2022-09-12T09:49:34.823Z,3.80
2022-09-12T09:52:09.592Z,4.00
2022-09-12T09:54:46.041Z,4.10
2022-09-12T09:57:41.360Z,3.50
2022-09-12T10:00:34.635Z,3.80
2022-09-12T10:03:23.297Z,3.80
2022-09-12T10:05:58.351Z,3.80
2022-09-12T10:08:32.203Z,3.90
2022-09-12T10:11:07.397Z,4.20
2022-09-12T10:13:43.009Z,3.60
2022-09-12T10:16:23.644Z,4.20
2022-09-12T10:18:57.131Z,4.00
2022-09-12T10:21:41.385Z,3.50
2022-09-12T10:24:25.310Z,3.90
2022-09-12T10:27:07.097Z,4.00
2022-09-12T10:29:47.820Z,3.80
2022-09-12T10:32:30.974Z,3.80
2022-09-12T10:35:07.595Z,3.70
2022-09-12T10:37:52.358Z,4.90
2022-09-12T10:40:27.783Z,3.90
2022-09-12T10:43:02.697Z,3.50
2022-09-12T10:45:36.630Z,4.00
2022-09-12T10:48:29.279Z,3.70
2022-09-12T10:51:02.227Z,3.60
2022-09-12T10:53:41.612Z,3.70
2022-09-12T10:56:16.232Z,3.60
2022-09-12T10:59:19.924Z,4.70
2022-09-12T11:02:01.175Z,3.50
2022-09-12T11:04:48.567Z,3.60
2022-09-12T11:07:47.528Z,3.80
2022-09-12T11:10:38.787Z,3.70
2022-09-12T11:13:26.475Z,4.40
2022-09-12T11:16:18.659Z,4.00
2022-09-12T11:19:11.963Z,4.30
2022-09-12T11:21:59.144Z,3.60
2022-09-12T11:24:45.909Z,3.70
2022-09-12T11:27:33.376Z,4.00
2022-09-12T11:30:10.846Z,3.60
2022-09-12T11:33:05.974Z,3.50
2022-09-12T11:35:44.245Z,3.00
2022-09-12T11:38:47.691Z,3.50
2022-09-12T11:41:26.203Z,3.80
2022-09-12T11:44:04.333Z,3.70
2022-09-12T11:46:38.232Z,3.60
2022-09-12T11:49:22.149Z,3.30
2022-09-12T11:51:59.255Z,3.30
2022-09-12T11:57:16.082Z,4.50
2022-09-12T11:59:53.129Z,3.40
2022-09-12T12:02:29.418Z,3.80
2022-09-12T12:05:17.391Z,3.60
2022-09-12T12:07:55.713Z,3.30
2022-09-12T12:10:36.968Z,4.10
2022-09-12T12:13:18.812Z,5.10
2022-09-12T12:15:54.725Z,3.50
2022-09-12T12:18:28.452Z,3.40
2022-09-12T12:21:32.512Z,3.40
2022-09-12T12:24:19.138Z,4.00
2022-09-12T12:27:03.352Z,3.90
2022-09-12T12:29:46.611Z,3.10
2022-09-12T12:32:28.491Z,3.10
2022-09-12T12:35:37.105Z,3.20
2022-09-12T12:38:29.982Z,3.10
2022-09-12T12:41:32.296Z,3.20
2022-09-12T12:44:37.597Z,3.20
2022-09-12T12:47:19.901Z,3.50
2022-09-12T12:49:59.829Z,2.80
2022-09-12T12:52:42.725Z,3.40
2022-09-12T12:55:20.619Z,3.20
2022-09-12T12:57:55.025Z,3.20
2022-09-12T13:00:37.230Z,2.80
2022-09-12T13:03:25.366Z,3.00
2022-09-12T13:06:03.428Z,3.20
2022-09-12T13:08:37.393Z,3.30
2022-09-12T13:11:13.578Z,3.80
2022-09-12T13:13:51.525Z,3.40
2022-09-12T13:16:35.571Z,3.60
2022-09-12T13:19:17.983Z,4.20
2022-09-12T13:22:01.150Z,3.70
2022-09-12T13:24:33.567Z,6.60
2022-09-12T13:27:16.658Z,4.40
2022-09-12T13:29:48.627Z,4.20
2022-09-12T13:32:20.890Z,5.30
2022-09-12T13:35:09.367Z,4.20
2022-09-12T13:37:51.527Z,3.80
2022-09-12T13:40:34.866Z,4.00
2022-09-12T13:43:16.877Z,4.00
2022-09-12T13:45:50.796Z,2.80
2022-09-12T13:48:25.727Z,3.40
2022-09-12T13:51:01.817Z,3.10
2022-09-12T13:53:42.432Z,3.40
2022-09-12T13:56:19.789Z,3.10
2022-09-12T13:58:57.684Z,3.20
2022-09-12T14:01:41.020Z,3.40
2022-09-12T14:04:42.250Z,3.50
2022-09-12T14:07:20.266Z,3.80
2022-09-12T14:09:59.004Z,3.00
2022-09-12T14:12:34.897Z,3.40
2022-09-12T14:15:12.103Z,3.90
2022-09-12T14:17:52.789Z,3.00
2022-09-12T14:20:25.936Z,3.40
2022-09-12T14:23:00.680Z,4.70
2022-09-12T14:25:37.323Z,4.50
2022-09-12T14:28:14.749Z,3.50
2022-09-12T14:31:01.675Z,3.10
2022-09-12T14:33:48.333Z,3.10
2022-09-12T14:36:24.930Z,3.20
2022-09-12T14:39:01.052Z,3.70
2022-09-12T14:41:37.466Z,4.00
2022-09-12T14:44:16.670Z,2.60
2022-09-12T14:46:50.252Z,2.70
2022-09-12T14:49:28.033Z,2.80
2022-09-12T14:52:01.561Z,4.00
2022-09-12T14:54:42.896Z,3.60
2022-09-12T14:57:39.433Z,3.30
2022-09-12T15:00:26.506Z,3.00
2022-09-12T15:03:18.351Z,3.00
2022-09-12T15:05:53.169Z,2.60
2022-09-12T15:08:25.734Z,2.80
2022-09-12T15:10:58.699Z,2.70
2022-09-12T15:13:40.003Z,2.80
2022-09-12T15:16:13.973Z,2.50
2022-09-12T15:18:46.217Z,2.80
2022-09-12T15:21:20.586Z,2.90
2022-09-12T15:23:53.936Z,3.20
2022-09-12T15:26:31.686Z,4.00
2022-09-12T15:29:04.196Z,4.50
2022-09-12T15:31:36.161Z,3.00
2022-09-12T15:34:08.176Z,3.50
2022-09-12T15:36:40.168Z,3.20
2022-09-12T15:39:13.500Z,3.20
2022-09-12T15:41:47.493Z,2.80
2022-09-12T15:44:20.236Z,2.90
2022-09-12T15:46:52.127Z,3.10
2022-09-12T15:49:23.935Z,3.00
2022-09-12T15:51:55.797Z,3.50
2022-09-12T15:54:27.793Z,3.60
2022-09-12T15:57:02.275Z,3.40
2022-09-12T15:59:34.267Z,3.70
2022-09-12T16:02:06.536Z,3.80
2022-09-12T16:04:38.885Z,3.20
2022-09-12T16:07:10.739Z,4.50
2022-09-12T16:09:42.698Z,3.90
2022-09-12T16:12:14.479Z,3.60
2022-09-12T16:14:46.288Z,3.70
2022-09-12T16:17:18.235Z,3.90
2022-09-12T16:19:50.361Z,4.40
2022-09-12T16:22:22.407Z,4.80
2022-09-12T16:24:54.281Z,4.90
2022-09-12T16:27:26.287Z,5.50
2022-09-12T16:29:58.290Z,6.00
2022-09-12T16:32:30.219Z,5.20
2022-09-12T16:35:02.467Z,5.40
2022-09-12T16:37:35.661Z,5.10
2022-09-12T16:40:09.868Z,5.40
2022-09-12T16:42:43.790Z,5.50
2022-09-12T16:45:16.204Z,5.50
2022-09-12T16:47:48.168Z,6.30
2022-09-12T16:50:20.229Z,7.70
2022-09-12T16:52:52.362Z,6.80
2022-09-12T16:55:24.319Z,6.20
2022-09-12T16:57:56.308Z,6.20
2022-09-12T17:00:28.217Z,6.50
2022-09-12T17:03:01.663Z,5.50
2022-09-12T17:05:33.876Z,5.10
2022-09-12T17:08:05.975Z,5.90
2022-09-12T17:10:41.888Z,6.10
2022-09-12T17:13:13.788Z,5.50
2022-09-12T17:15:45.726Z,5.50
2022-09-12T17:18:17.674Z,5.30
2022-09-12T17:20:49.606Z,5.70
2022-09-12T17:23:21.545Z,5.80
2022-09-12T17:25:54.122Z,5.80
2022-09-12T17:28:26.042Z,6.60
2022-09-12T17:31:02.744Z,6.30
2022-09-12T17:33:35.743Z,7.40
2022-09-12T17:36:11.184Z,6.70
2022-09-12T17:38:43.652Z,6.70
2022-09-12T17:41:18.618Z,7.10
2022-09-12T17:43:53.319Z,8.00
2022-09-12T17:46:26.931Z,6.80
2022-09-12T17:49:00.992Z,7.10
2022-09-12T17:51:33.597Z,7.00
2022-09-12T17:54:08.442Z,6.90
2022-09-12T17:56:42.961Z,6.60
2022-09-12T17:59:18.491Z,7.30
2022-09-12T18:02:08.841Z,6.90
2022-09-12T18:04:41.773Z,6.70
2022-09-12T18:07:14.245Z,7.70
2022-09-12T18:09:46.854Z,6.80
2022-09-12T18:12:20.112Z,6.80
2022-09-12T18:14:52.226Z,6.50
2022-09-12T18:17:24.385Z,6.40
2022-09-12T18:19:56.280Z,7.30
2022-09-12T18:22:28.228Z,7.70
2022-09-12T18:25:00.153Z,7.20
2022-09-12T18:27:32.071Z,7.30
2022-09-12T18:30:20.738Z,7.30
2022-09-12T18:32:54.009Z,7.50
2022-09-12T18:35:26.028Z,7.90
2022-09-12T18:37:58.147Z,6.80
2022-09-12T18:40:30.235Z,7.10
2022-09-12T18:43:02.166Z,7.90
2022-09-12T18:45:34.580Z,7.40
2022-09-12T18:48:06.820Z,7.90
2022-09-12T18:50:38.625Z,7.70
2022-09-12T18:53:10.948Z,7.50
2022-09-12T18:55:43.283Z,8.50
2022-09-12T18:58:15.261Z,7.70
2022-09-12T19:00:49.202Z,8.10
2022-09-12T19:03:22.492Z,8.10
2022-09-12T19:05:54.635Z,10.20
2022-09-12T19:08:26.800Z,8.40
2022-09-12T19:10:59.538Z,8.70
2022-09-12T19:13:31.639Z,9.90
2022-09-12T19:16:05.388Z,9.10
2022-09-12T19:18:38.061Z,8.60
2022-09-12T19:21:13.807Z,9.80
2022-09-12T19:23:46.797Z,9.10
2022-09-12T19:26:20.801Z,9.20
2022-09-12T19:28:53.378Z,8.90
2022-09-12T19:31:26.752Z,8.70
2022-09-12T19:34:03.432Z,8.70
2022-09-12T19:36:45.934Z,7.90
2022-09-12T19:39:20.758Z,8.50
2022-09-12T19:41:53.927Z,8.40
2022-09-12T19:44:27.677Z,8.70
2022-09-12T19:46:59.656Z,8.60
2022-09-12T19:49:31.598Z,8.00
2022-09-12T19:52:03.956Z,8.60
2022-09-12T19:54:35.899Z,7.70
2022-09-12T19:57:07.907Z,8.30
2022-09-12T19:59:40.656Z,8.40
2022-09-12T20:02:12.712Z,9.00
2022-09-12T20:04:44.602Z,10.50
2022-09-12T20:07:16.561Z,8.60
2022-09-12T20:09:48.910Z,9.00
2022-09-12T20:12:21.023Z,9.50
2022-09-12T20:14:53.045Z,9.90
2022-09-12T20:17:25.045Z,10.40
2022-09-12T20:19:57.139Z,11.10
2022-09-12T20:22:29.131Z,10.20
2022-09-12T20:25:00.975Z,10.40
2022-09-12T20:27:32.905Z,10.90
2022-09-12T20:30:05.122Z,10.60
2022-09-12T20:32:37.709Z,10.60
2022-09-12T20:35:11.310Z,10.60
2022-09-12T20:37:43.088Z,10.80
2022-09-12T20:40:15.294Z,10.60
2022-09-12T20:42:47.333Z,11.30
2022-09-12T20:45:19.431Z,11.10
2022-09-12T20:47:51.297Z,11.20
2022-09-12T20:50:24.688Z,10.00
2022-09-12T20:52:56.505Z,10.80
2022-09-12T20:55:28.354Z,11.00
2022-09-12T20:58:00.633Z,10.50
2022-09-12T21:00:32.610Z,10.50
2022-09-12T21:03:04.858Z,10.30
2022-09-12T21:05:37.083Z,10.50
2022-09-12T21:08:08.988Z,10.30
2022-09-12T21:10:41.572Z,10.60
2022-09-12T21:13:14.689Z,10.30
2022-09-12T21:15:46.744Z,9.70
2022-09-12T21:18:18.564Z,10.80
2022-09-12T21:20:57.967Z,12.50
2022-09-12T21:23:31.636Z,10.60
2022-09-12T21:26:05.053Z,11.20
2022-09-12T21:28:37.621Z,11.90
2022-09-12T21:31:12.041Z,12.50
2022-09-12T21:33:45.004Z,13.10
2022-09-12T21:36:17.113Z,12.80
2022-09-12T21:38:48.991Z,11.90
2022-09-12T21:41:20.976Z,12.60
2022-09-12T21:43:53.310Z,12.90
2022-09-12T21:46:25.341Z,12.80
2022-09-12T21:48:57.274Z,12.80
2022-09-12T21:51:29.131Z,12.60
2022-09-12T21:54:01.093Z,11.30
2022-09-12T21:56:32.956Z,11.20
2022-09-12T21:59:05.134Z,12.80
2022-09-12T22:01:36.988Z,12.10
2022-09-12T22:04:09.972Z,11.90
2022-09-12T22:06:41.749Z,12.00
2022-09-12T22:09:14.134Z,12.20
2022-09-12T22:11:46.133Z,11.70
2022-09-12T22:14:18.180Z,12.70
2022-09-12T22:16:50.457Z,12.90
2022-09-12T22:19:22.516Z,12.40
2022-09-12T22:22:12.321Z,12.60
2022-09-12T22:24:44.274Z,12.90
2022-09-12T22:27:16.127Z,13.00
2022-09-12T22:29:50.658Z,14.20
2022-09-12T22:32:23.072Z,14.70
2022-09-12T22:34:54.913Z,14.10
2022-09-12T22:37:26.710Z,13.00
2022-09-12T22:39:58.641Z,11.70
2022-09-12T22:42:31.304Z,11.90
2022-09-12T22:45:03.116Z,12.50
2022-09-12T22:47:34.947Z,12.70
2022-09-12T22:50:07.910Z,13.90
2022-09-12T22:52:39.671Z,14.00
2022-09-12T22:55:12.151Z,13.60
2022-09-12T22:57:43.955Z,13.40
2022-09-12T23:00:18.175Z,13.80
2022-09-12T23:02:50.234Z,14.00
2022-09-12T23:05:22.091Z,14.00
2022-09-12T23:07:55.396Z,14.30
2022-09-12T23:10:27.649Z,13.50
2022-09-12T23:12:59.605Z,12.80
2022-09-12T23:15:31.428Z,12.80
2022-09-12T23:18:05.135Z,12.00
2022-09-12T23:20:37.281Z,12.40
2022-09-12T23:23:09.780Z,11.80
2022-09-12T23:25:41.660Z,12.40
2022-09-12T23:28:14.933Z,12.00
2022-09-12T23:30:46.807Z,13.10
2022-09-12T23:33:18.864Z,12.90
2022-09-12T23:35:51.025Z,13.30
2022-09-12T23:38:22.811Z,13.00
2022-09-12T23:40:54.927Z,11.80
2022-09-12T23:43:27.456Z,12.50
2022-09-12T23:45:59.706Z,12.00
2022-09-12T23:48:32.128Z,12.70
2022-09-12T23:51:04.676Z,12.70
2022-09-12T23:53:36.776Z,11.90
2022-09-12T23:56:10.685Z,11.80
2022-09-12T23:58:42.643Z,11.60
